createdAt,value
2022-08-25T00:00:12.415Z,96.40
2022-08-25T00:02:39.191Z,97.80
2022-08-25T00:05:07.383Z,96.20
2022-08-25T00:07:36.469Z,97.90
2022-08-25T00:10:05.567Z,97.90
2022-08-25T00:12:32.929Z,96.60
2022-08-25T00:14:59.862Z,96.80
2022-08-25T00:17:27.598Z,97.40
2022-08-25T00:19:54.323Z,98.40
2022-08-25T00:22:21.057Z,97.10
2022-08-25T00:24:47.776Z,98.50
2022-08-25T00:27:14.859Z,99.00
2022-08-25T00:29:41.542Z,98.90
2022-08-25T00:32:08.391Z,99.00
2022-08-25T00:34:38.002Z,98.10
2022-08-25T00:37:07.341Z,98.70
2022-08-25T00:39:34.639Z,99.20
2022-08-25T00:42:01.707Z,98.70
2022-08-25T00:44:30.772Z,99.20
2022-08-25T00:47:00.977Z,96.80
2022-08-25T00:49:35.671Z,98.60
2022-08-25T00:52:16.068Z,98.40
2022-08-25T00:54:45.933Z,99.60
2022-08-25T00:57:14.945Z,97.20
2022-08-25T00:59:44.354Z,97.50
2022-08-25T01:02:13.767Z,98.50
2022-08-25T01:04:48.745Z,99.40
2022-08-25T01:07:18.937Z,99.70
2022-08-25T01:09:48.034Z,97.50
2022-08-25T01:12:15.098Z,97.10
2022-08-25T01:14:45.965Z,98.10
2022-08-25T01:17:14.348Z,99.50
2022-08-25T01:19:41.171Z,97.60
2022-08-25T01:22:08.566Z,98.80
2022-08-25T01:24:59.007Z,98.40
2022-08-25T01:27:25.785Z,99.20
2022-08-25T01:29:52.644Z,99.30
2022-08-25T01:32:20.010Z,98.60
2022-08-25T01:34:46.906Z,98.20
2022-08-25T01:37:16.123Z,97.30
2022-08-25T01:39:43.795Z,99.30
2022-08-25T01:42:48.672Z,99.50
2022-08-25T01:45:15.510Z,99.90
2022-08-25T01:47:42.308Z,99.90
2022-08-25T01:50:09.384Z,99.90
2022-08-25T01:52:58.508Z,99.90
2022-08-25T01:55:25.888Z,99.90
2022-08-25T01:57:52.784Z,99.90
2022-08-25T02:00:21.303Z,99.90
2022-08-25T02:02:52.230Z,99.90
2022-08-25T02:05:23.495Z,99.90
2022-08-25T02:07:51.577Z,99.90
2022-08-25T02:10:18.833Z,99.90
2022-08-25T02:12:45.674Z,99.90
2022-08-25T02:15:12.567Z,99.90
2022-08-25T02:17:39.436Z,99.90
2022-08-25T02:20:08.586Z,99.90
2022-08-25T02:22:35.287Z,99.90
2022-08-25T02:25:02.015Z,99.90
2022-08-25T02:27:28.763Z,99.90
2022-08-25T02:29:55.658Z,99.90
2022-08-25T02:32:22.371Z,99.90
2022-08-25T02:34:49.313Z,99.90
2022-08-25T02:37:16.117Z,99.90
2022-08-25T02:39:42.854Z,99.90
2022-08-25T02:42:09.550Z,99.90
2022-08-25T02:44:36.294Z,99.90
2022-08-25T02:47:03.236Z,99.90
2022-08-25T02:49:30.515Z,99.90
2022-08-25T02:51:58.741Z,99.90
2022-08-25T02:54:25.955Z,99.90
2022-08-25T02:56:52.660Z,99.90
2022-08-25T02:59:19.576Z,99.90
2022-08-25T03:01:46.354Z,99.90
2022-08-25T03:04:13.183Z,99.90
2022-08-25T03:06:40.896Z,99.90
2022-08-25T03:09:08.054Z,99.90
2022-08-25T03:11:35.023Z,99.90
2022-08-25T03:14:01.851Z,99.90
2022-08-25T03:16:28.634Z,99.90
2022-08-25T03:18:55.479Z,99.90
2022-08-25T03:21:22.841Z,99.90
2022-08-25T03:23:49.557Z,99.90
2022-08-25T03:26:34.986Z,99.90
2022-08-25T03:29:05.166Z,99.90
2022-08-25T03:31:33.237Z,99.90
2022-08-25T03:34:00.389Z,99.90
2022-08-25T03:36:27.817Z,99.90
2022-08-25T03:38:54.597Z,99.90
2022-08-25T03:41:27.783Z,99.90
2022-08-25T03:43:56.710Z,99.90
2022-08-25T03:46:26.189Z,99.90
2022-08-25T03:48:53.381Z,98.40
2022-08-25T03:51:29.357Z,94.10
2022-08-25T03:53:56.688Z,99.90
2022-08-25T03:56:23.593Z,99.90
2022-08-25T03:58:51.337Z,98.20
2022-08-25T04:01:18.288Z,99.80
2022-08-25T04:03:46.047Z,98.10
2022-08-25T04:06:13.570Z,99.90
2022-08-25T04:08:40.351Z,99.90
2022-08-25T04:11:13.120Z,99.90
2022-08-25T04:13:41.922Z,99.90
2022-08-25T04:16:14.302Z,99.90
2022-08-25T04:18:41.857Z,99.90
2022-08-25T04:21:10.215Z,97.70
2022-08-25T04:23:40.708Z,98.10
2022-08-25T04:26:11.581Z,99.70
2022-08-25T04:28:38.532Z,99.90
2022-08-25T04:31:10.331Z,99.90
2022-08-25T04:33:38.531Z,99.90
2022-08-25T04:36:11.968Z,99.90
2022-08-25T04:38:40.756Z,99.90
2022-08-25T04:41:10.074Z,99.90
2022-08-25T04:43:38.043Z,99.90
2022-08-25T04:46:11.376Z,99.90
2022-08-25T04:48:42.208Z,99.90
2022-08-25T04:51:12.496Z,99.90
2022-08-25T04:53:40.107Z,99.90
2022-08-25T04:56:12.806Z,99.90
2022-08-25T04:58:40.513Z,99.90
2022-08-25T05:01:15.562Z,99.90
2022-08-25T05:03:43.036Z,99.90
2022-08-25T05:06:13.965Z,99.10
2022-08-25T05:08:42.530Z,99.80
2022-08-25T05:11:14.916Z,99.90
2022-08-25T05:13:43.102Z,99.90
2022-08-25T05:16:11.479Z,99.40
2022-08-25T05:18:38.622Z,98.90
2022-08-25T05:21:13.617Z,98.40
2022-08-25T05:23:41.196Z,97.90
2022-08-25T05:26:10.979Z,97.60
2022-08-25T05:28:41.779Z,97.30
2022-08-25T05:31:11.267Z,97.30
2022-08-25T05:33:39.368Z,96.90
2022-08-25T05:36:07.946Z,96.40
2022-08-25T05:38:34.688Z,96.00
2022-08-25T05:41:07.337Z,95.90
2022-08-25T05:43:34.968Z,95.60
2022-08-25T05:46:01.731Z,95.70
2022-08-25T05:48:31.180Z,95.60
2022-08-25T05:51:03.435Z,95.50
2022-08-25T05:53:31.132Z,95.00
2022-08-25T05:56:01.866Z,95.50
2022-08-25T05:58:29.866Z,92.30
2022-08-25T06:00:58.257Z,91.20
2022-08-25T06:03:25.132Z,93.80
2022-08-25T06:05:51.966Z,93.70
2022-08-25T06:08:19.494Z,90.30
2022-08-25T06:10:51.588Z,92.60
2022-08-25T06:13:18.521Z,93.00
2022-08-25T06:15:58.323Z,92.50
2022-08-25T06:18:25.373Z,93.30
2022-08-25T06:20:52.274Z,92.20
2022-08-25T06:23:19.434Z,90.20
2022-08-25T06:25:53.497Z,90.60
2022-08-25T06:28:21.216Z,89.40
2022-08-25T06:30:48.409Z,88.20
2022-08-25T06:33:15.622Z,90.60
2022-08-25T06:35:43.965Z,90.70
2022-08-25T06:38:11.608Z,90.70
2022-08-25T06:40:38.757Z,85.10
2022-08-25T06:43:08.857Z,83.70
2022-08-25T06:45:35.930Z,83.80
2022-08-25T06:48:03.101Z,82.50
2022-08-25T06:50:33.052Z,81.50
2022-08-25T06:53:00.004Z,81.30
2022-08-25T06:55:26.760Z,79.80
2022-08-25T06:57:55.131Z,83.90
2022-08-25T07:00:30.333Z,79.30
2022-08-25T07:03:01.158Z,78.00
2022-08-25T07:05:40.913Z,80.90
2022-08-25T07:08:12.010Z,75.60
2022-08-25T07:10:39.073Z,76.50
2022-08-25T07:13:05.934Z,75.70
2022-08-25T07:15:38.749Z,77.70
2022-08-25T07:18:13.124Z,73.60
2022-08-25T07:20:41.071Z,72.50
2022-08-25T07:23:08.974Z,74.10
2022-08-25T07:25:36.217Z,75.10
2022-08-25T07:28:04.172Z,74.90
2022-08-25T07:30:32.542Z,74.20
2022-08-25T07:33:00.725Z,75.30
2022-08-25T07:35:37.483Z,71.90
2022-08-25T07:38:10.255Z,81.90
2022-08-25T07:40:42.938Z,73.80
2022-08-25T07:43:10.353Z,75.30
2022-08-25T07:45:49.038Z,77.00
2022-08-25T07:48:19.787Z,74.90
2022-08-25T07:50:49.364Z,74.10
2022-08-25T07:53:17.439Z,74.30
2022-08-25T07:55:45.107Z,76.20
2022-08-25T07:58:14.173Z,74.20
2022-08-25T08:00:42.439Z,76.20
2022-08-25T08:03:19.864Z,76.80
2022-08-25T08:05:57.193Z,70.60
2022-08-25T08:08:23.910Z,71.70
2022-08-25T08:11:06.080Z,73.50
2022-08-25T08:13:40.764Z,75.90
2022-08-25T08:16:13.227Z,71.50
2022-08-25T08:18:40.471Z,71.10
2022-08-25T08:21:13.116Z,79.00
2022-08-25T08:23:47.333Z,70.90
2022-08-25T08:26:14.480Z,69.80
2022-08-25T08:28:41.217Z,75.10
2022-08-25T08:31:10.553Z,71.80
2022-08-25T08:33:40.693Z,82.10
2022-08-25T08:36:11.764Z,75.20
2022-08-25T08:38:41.706Z,72.10
2022-08-25T08:42:11.255Z,70.10
2022-08-25T08:44:41.513Z,74.20
2022-08-25T08:47:17.204Z,74.50
2022-08-25T08:50:27.741Z,69.60
2022-08-25T08:53:40.063Z,73.10
2022-08-25T08:56:16.541Z,68.50
2022-08-25T08:59:06.197Z,68.80
2022-08-25T09:01:43.602Z,71.00
2022-08-25T09:04:16.480Z,74.00
2022-08-25T09:06:45.718Z,68.30
2022-08-25T09:09:16.960Z,74.70
2022-08-25T09:11:59.184Z,71.30
2022-08-25T09:14:39.782Z,79.70
2022-08-25T09:17:21.861Z,73.00
2022-08-25T09:20:27.558Z,71.70
2022-08-25T09:23:07.066Z,82.80
2022-08-25T09:25:53.559Z,75.80
2022-08-25T09:28:51.199Z,70.10
2022-08-25T09:31:31.533Z,75.10
2022-08-25T09:34:02.184Z,67.20
2022-08-25T09:36:30.125Z,72.90
2022-08-25T09:38:58.036Z,67.60
2022-08-25T09:41:52.737Z,67.10
2022-08-25T09:44:33.024Z,72.20
2022-08-25T09:47:25.008Z,71.20
2022-08-25T09:50:01.761Z,73.10
2022-08-25T09:52:41.130Z,81.90
2022-08-25T09:55:08.166Z,73.10
2022-08-25T09:57:45.741Z,66.30
2022-08-25T10:00:21.800Z,64.60
2022-08-25T10:03:22.554Z,70.40
2022-08-25T10:06:12.993Z,77.40
2022-08-25T10:08:56.104Z,68.20
2022-08-25T10:11:45.298Z,63.40
2022-08-25T10:14:36.349Z,65.70
2022-08-25T10:17:13.429Z,64.60
2022-08-25T10:19:40.322Z,74.00
2022-08-25T10:22:24.278Z,75.70
2022-08-25T10:24:51.116Z,78.30
2022-08-25T10:27:28.591Z,64.40
2022-08-25T10:30:03.543Z,67.60
2022-08-25T10:32:58.288Z,79.60
2022-08-25T10:35:34.967Z,69.20
2022-08-25T10:38:36.171Z,75.20
2022-08-25T10:41:19.820Z,78.10
2022-08-25T10:44:42.001Z,72.80
2022-08-25T10:47:22.384Z,80.60
2022-08-25T10:49:54.694Z,65.90
2022-08-25T10:52:31.365Z,64.40
2022-08-25T10:55:09.096Z,79.40
2022-08-25T10:57:58.050Z,76.20
2022-08-25T11:00:31.775Z,60.70
2022-08-25T11:03:13.292Z,59.10
2022-08-25T11:05:42.802Z,62.30
2022-08-25T11:08:19.968Z,60.90
2022-08-25T11:11:01.163Z,61.50
2022-08-25T11:13:33.806Z,60.00
2022-08-25T11:16:21.741Z,68.60
2022-08-25T11:18:55.955Z,64.30
2022-08-25T11:21:31.909Z,58.70
2022-08-25T11:24:43.157Z,57.40
2022-08-25T11:27:37.467Z,56.60
2022-08-25T11:30:11.775Z,57.10
2022-08-25T11:32:39.884Z,56.90
2022-08-25T11:35:12.836Z,60.30
2022-08-25T11:38:04.881Z,61.40
2022-08-25T11:40:53.325Z,58.50
2022-08-25T11:43:40.623Z,59.00
2022-08-25T11:46:26.155Z,64.70
2022-08-25T11:49:15.230Z,57.90
2022-08-25T11:51:47.559Z,56.60
2022-08-25T11:54:35.725Z,73.80
2022-08-25T11:57:07.136Z,64.70
2022-08-25T11:59:53.120Z,55.60
2022-08-25T12:02:43.765Z,59.20
2022-08-25T12:05:20.113Z,56.90
2022-08-25T12:08:16.790Z,54.50
2022-08-25T12:11:11.382Z,55.10
2022-08-25T12:13:47.575Z,53.80
2022-08-25T12:16:43.462Z,55.20
2022-08-25T12:19:29.344Z,68.10
2022-08-25T12:22:28.004Z,54.70
2022-08-25T12:25:13.965Z,66.50
2022-08-25T12:28:15.701Z,55.80
2022-08-25T12:30:52.697Z,57.50
2022-08-25T12:33:45.031Z,62.20
2022-08-25T12:36:27.704Z,56.20
2022-08-25T12:38:54.551Z,57.30
2022-08-25T12:41:31.108Z,65.90
2022-08-25T12:44:41.300Z,62.00
2022-08-25T12:47:13.752Z,76.00
2022-08-25T12:49:40.791Z,73.30
2022-08-25T12:52:15.876Z,60.60
2022-08-25T12:54:59.499Z,59.20
2022-08-25T12:57:40.752Z,79.10
2022-08-25T13:03:21.691Z,58.70
2022-08-25T13:06:04.528Z,70.80
2022-08-25T13:09:01.601Z,74.20
2022-08-25T13:11:46.449Z,69.80
2022-08-25T13:14:41.544Z,74.00
2022-08-25T13:17:10.846Z,62.70
2022-08-25T13:19:38.657Z,73.80
2022-08-25T13:22:17.678Z,63.80
2022-08-25T13:24:50.518Z,68.10
2022-08-25T13:27:29.910Z,70.80
2022-08-25T13:29:58.956Z,74.50
2022-08-25T13:32:35.461Z,75.10
2022-08-25T13:35:17.680Z,69.20
2022-08-25T13:37:46.481Z,61.70
2022-08-25T13:40:17.834Z,72.10
2022-08-25T13:42:54.445Z,53.60
2022-08-25T13:45:26.322Z,51.40
2022-08-25T13:48:07.618Z,49.80
2022-08-25T13:50:42.634Z,59.10
2022-08-25T13:53:15.581Z,58.20
2022-08-25T13:55:57.937Z,55.60
2022-08-25T13:58:44.975Z,62.50
2022-08-25T14:01:47.727Z,56.40
2022-08-25T14:04:51.190Z,54.10
2022-08-25T14:07:22.255Z,71.10
2022-08-25T14:09:52.411Z,60.50
2022-08-25T14:12:39.872Z,54.10
2022-08-25T14:15:29.443Z,53.40
2022-08-25T14:18:19.402Z,50.70
2022-08-25T14:20:50.527Z,56.40
2022-08-25T14:23:22.151Z,67.50
2022-08-25T14:25:53.403Z,61.00
2022-08-25T14:28:23.545Z,67.60
2022-08-25T14:30:57.143Z,73.30
2022-08-25T14:33:29.269Z,53.10
2022-08-25T14:35:59.223Z,69.20
2022-08-25T14:38:26.306Z,53.30
2022-08-25T14:40:53.831Z,57.00
2022-08-25T14:43:23.958Z,70.40
2022-08-25T14:45:58.273Z,63.60
2022-08-25T14:48:42.429Z,61.50
2022-08-25T14:51:12.526Z,66.30
2022-08-25T14:53:40.155Z,51.30
2022-08-25T14:56:09.235Z,49.20
2022-08-25T14:58:47.317Z,48.70
2022-08-25T15:01:18.575Z,48.60
2022-08-25T15:03:51.731Z,48.30
2022-08-25T15:06:18.790Z,60.20
2022-08-25T15:09:04.646Z,49.30
2022-08-25T15:11:31.978Z,53.30
2022-08-25T15:14:02.039Z,50.00
2022-08-25T15:16:56.223Z,51.30
2022-08-25T15:19:25.742Z,48.60
2022-08-25T15:21:53.289Z,51.30
2022-08-25T15:24:21.430Z,48.80
2022-08-25T15:29:29.679Z,64.50
2022-08-25T15:31:57.580Z,50.70
2022-08-25T15:34:24.371Z,62.90
2022-08-25T15:36:51.446Z,56.10
2022-08-25T15:39:19.193Z,65.00
2022-08-25T15:41:52.446Z,67.00
2022-08-25T15:44:20.467Z,51.70
2022-08-25T15:46:50.001Z,51.70
2022-08-25T15:49:20.298Z,50.10
2022-08-25T15:51:50.881Z,53.40
2022-08-25T15:54:17.658Z,53.10
2022-08-25T15:56:44.511Z,50.30
2022-08-25T15:59:13.537Z,49.50
2022-08-25T16:01:41.697Z,50.10
2022-08-25T16:04:08.498Z,51.00
2022-08-25T16:06:35.316Z,50.20
2022-08-25T16:09:03.042Z,49.20
2022-08-25T16:11:34.818Z,49.10
2022-08-25T16:14:02.396Z,54.10
2022-08-25T16:16:31.087Z,49.90
2022-08-25T16:18:59.195Z,47.90
2022-08-25T16:21:31.916Z,49.20
2022-08-25T16:24:05.439Z,49.90
2022-08-25T16:26:36.547Z,51.30
2022-08-25T16:29:07.056Z,49.90
2022-08-25T16:31:33.876Z,51.20
2022-08-25T16:34:01.536Z,54.10
2022-08-25T16:36:29.166Z,53.50
2022-08-25T16:38:57.676Z,53.50
2022-08-25T16:41:27.190Z,54.40
2022-08-25T16:43:54.299Z,55.60
2022-08-25T16:46:23.767Z,54.40
2022-08-25T16:48:51.053Z,56.20
2022-08-25T16:51:22.636Z,57.70
2022-08-25T16:54:15.999Z,55.50
2022-08-25T16:56:54.876Z,56.30
2022-08-25T16:59:23.583Z,58.10
2022-08-25T17:01:51.971Z,59.20
2022-08-25T17:04:19.464Z,60.80
2022-08-25T17:06:49.368Z,60.10
2022-08-25T17:09:23.058Z,61.20
2022-08-25T17:11:52.691Z,62.40
2022-08-25T17:14:21.824Z,62.40
2022-08-25T17:16:50.664Z,63.70
2022-08-25T17:19:19.140Z,63.00
2022-08-25T17:21:46.742Z,63.00
2022-08-25T17:24:15.240Z,63.10
2022-08-25T17:26:43.152Z,63.60
2022-08-25T17:29:10.636Z,63.70
2022-08-25T17:31:39.977Z,64.00
2022-08-25T17:34:12.902Z,64.30
2022-08-25T17:36:43.818Z,66.60
2022-08-25T17:39:12.706Z,65.90
2022-08-25T17:41:43.089Z,66.50
2022-08-25T17:44:09.815Z,66.30
2022-08-25T17:46:36.811Z,66.50
2022-08-25T17:49:04.393Z,66.90
2022-08-25T17:51:32.039Z,67.70
2022-08-25T17:53:59.172Z,67.30
2022-08-25T17:56:27.397Z,68.00
2022-08-25T17:58:56.029Z,68.90
2022-08-25T18:01:29.099Z,69.50
2022-08-25T18:03:57.413Z,69.90
2022-08-25T18:06:26.203Z,69.60
2022-08-25T18:08:58.744Z,69.50
2022-08-25T18:11:27.396Z,70.00
2022-08-25T18:13:55.379Z,70.10
2022-08-25T18:16:22.939Z,70.00
2022-08-25T18:18:50.392Z,70.40
2022-08-25T18:21:20.316Z,69.60
2022-08-25T18:23:47.809Z,70.00
2022-08-25T18:26:15.746Z,69.90
2022-08-25T18:28:43.687Z,71.20
2022-08-25T18:31:13.350Z,70.20
2022-08-25T18:33:44.432Z,69.70
2022-08-25T18:36:12.171Z,71.20
2022-08-25T18:38:58.482Z,71.30
2022-08-25T18:41:26.814Z,72.60
2022-08-25T18:43:54.994Z,72.30
2022-08-25T18:46:22.610Z,74.10
2022-08-25T18:48:52.799Z,74.30
2022-08-25T18:51:23.080Z,73.90
2022-08-25T18:53:54.458Z,74.30
2022-08-25T18:56:26.417Z,74.00
2022-08-25T18:58:53.242Z,73.50
2022-08-25T19:01:20.654Z,73.40
2022-08-25T19:03:48.741Z,74.90
2022-08-25T19:06:16.627Z,76.20
2022-08-25T19:08:44.578Z,75.90
2022-08-25T19:11:12.054Z,76.20
2022-08-25T19:13:39.433Z,75.10
2022-08-25T19:16:31.187Z,77.70
2022-08-25T19:18:58.369Z,76.00
2022-08-25T19:21:25.436Z,77.00
2022-08-25T19:23:53.528Z,76.10
2022-08-25T19:26:20.779Z,77.60
2022-08-25T19:28:49.550Z,79.30
2022-08-25T19:31:26.442Z,76.70
2022-08-25T19:33:55.974Z,79.20
2022-08-25T19:36:28.055Z,80.60
2022-08-25T19:38:58.231Z,79.90
2022-08-25T19:41:27.520Z,79.60
2022-08-25T19:43:56.322Z,83.30
2022-08-25T19:46:32.081Z,83.90
2022-08-25T19:49:08.408Z,84.00
2022-08-25T19:51:44.339Z,85.30
2022-08-25T19:54:13.590Z,86.00
2022-08-25T19:56:43.618Z,83.90
2022-08-25T19:59:11.184Z,84.00
2022-08-25T20:01:38.000Z,85.00
2022-08-25T20:04:07.198Z,83.80
2022-08-25T20:06:34.001Z,83.30
2022-08-25T20:09:01.335Z,84.80
2022-08-25T20:11:29.330Z,85.40
2022-08-25T20:13:59.257Z,83.30
2022-08-25T20:16:29.946Z,83.90
2022-08-25T20:18:56.645Z,84.90
2022-08-25T20:21:25.232Z,84.80
2022-08-25T20:24:10.726Z,86.70
2022-08-25T20:26:37.671Z,87.60
2022-08-25T20:29:07.451Z,90.10
2022-08-25T20:31:34.146Z,88.80
2022-08-25T20:34:03.033Z,88.70
2022-08-25T20:36:29.981Z,90.40
2022-08-25T20:38:59.045Z,90.10
2022-08-25T20:41:26.026Z,90.50
2022-08-25T20:43:52.993Z,90.90
2022-08-25T20:46:19.772Z,91.10
2022-08-25T20:48:47.123Z,91.00
2022-08-25T20:51:18.427Z,91.60
2022-08-25T20:53:45.683Z,91.00
2022-08-25T20:56:14.661Z,91.60
2022-08-25T20:58:42.826Z,90.70
2022-08-25T21:01:20.433Z,91.50
2022-08-25T21:03:50.501Z,90.40
2022-08-25T21:06:17.448Z,91.60
2022-08-25T21:08:46.819Z,91.60
2022-08-25T21:11:15.985Z,91.40
2022-08-25T21:13:42.871Z,92.60
2022-08-25T21:16:10.265Z,93.40
2022-08-25T21:18:38.335Z,93.30
2022-08-25T21:21:14.550Z,93.40
2022-08-25T21:23:43.662Z,92.20
2022-08-25T21:26:22.876Z,92.10
2022-08-25T21:28:49.946Z,91.60
2022-08-25T21:31:18.258Z,91.60
2022-08-25T21:33:47.991Z,92.90
2022-08-25T21:36:19.533Z,92.80
2022-08-25T21:38:47.945Z,93.60
2022-08-25T21:41:22.808Z,93.80
2022-08-25T21:43:50.476Z,93.30
2022-08-25T21:46:22.839Z,93.40
2022-08-25T21:48:50.462Z,94.30
2022-08-25T21:51:20.415Z,93.00
2022-08-25T21:53:49.566Z,94.60
2022-08-25T21:56:19.305Z,93.20
2022-08-25T21:58:49.205Z,93.80
2022-08-25T22:01:19.606Z,93.20
2022-08-25T22:03:47.085Z,94.40
2022-08-25T22:06:15.249Z,92.40
2022-08-25T22:08:43.584Z,93.20
2022-08-25T22:11:14.459Z,94.90
2022-08-25T22:13:44.105Z,92.80
2022-08-25T22:16:12.532Z,94.50
2022-08-25T22:18:39.889Z,93.10
2022-08-25T22:21:09.744Z,93.00
2022-08-25T22:23:44.149Z,94.40
2022-08-25T22:26:13.990Z,94.00
2022-08-25T22:28:42.714Z,93.40
2022-08-25T22:31:14.690Z,93.20
2022-08-25T22:33:50.245Z,94.40
2022-08-25T22:36:27.172Z,93.60
2022-08-25T22:38:56.291Z,93.50
2022-08-25T22:41:26.066Z,94.30
2022-08-25T22:43:56.708Z,93.00
2022-08-25T22:46:26.398Z,93.30
2022-08-25T22:48:57.403Z,95.30
2022-08-25T22:51:31.579Z,92.80
2022-08-25T22:53:59.844Z,94.90
2022-08-25T22:56:33.938Z,93.70
2022-08-25T22:59:05.335Z,94.10
2022-08-25T23:01:32.992Z,93.40
2022-08-25T23:04:01.968Z,93.50
2022-08-25T23:06:29.049Z,92.80
2022-08-25T23:08:56.286Z,93.20
2022-08-25T23:11:24.635Z,93.50
2022-08-25T23:13:55.645Z,94.10
2022-08-25T23:16:23.422Z,94.20
2022-08-25T23:18:51.509Z,95.20
2022-08-25T23:21:41.060Z,95.00
2022-08-25T23:24:13.262Z,95.70
2022-08-25T23:26:42.002Z,93.60
2022-08-25T23:29:18.370Z,95.70
2022-08-25T23:31:46.891Z,94.50
2022-08-25T23:34:15.518Z,93.20
2022-08-25T23:36:43.554Z,94.20
2022-08-25T23:39:11.446Z,94.80
2022-08-25T23:41:38.638Z,95.80
2022-08-25T23:44:06.238Z,96.50
2022-08-25T23:46:36.083Z,94.70
2022-08-25T23:49:04.718Z,95.70
2022-08-25T23:51:37.222Z,94.40
2022-08-25T23:54:09.531Z,95.50
2022-08-25T23:56:44.428Z,94.80
2022-08-25T23:59:13.149Z,95.10
